Time;durP1;ratioP1;P1;durP2;ratioP2;P2;SDS_P1;SDS_P2;PMS_P1;PMS_P2;Temp;Humidity;BMP_temperature;BMP_pressure;BME280_temperature;BME280_humidity;BME280_pressure;Samples;Min_cycle;Max_cycle;Signal;HPM_P1;HPM_P2
2023/07/01 00:00:14;;;;;;;11.15;5.18;;;16.40;99.90;;;;;;4976227;28;20042;-62
2023/07/01 00:02:39;;;;;;;9.23;4.10;;;16.60;99.90;;;;;;4988716;28;20043;-62
2023/07/01 00:05:07;;;;;;;8.32;4.75;;;16.40;99.90;;;;;;4982890;28;20493;-62
2023/07/01 00:07:33;;;;;;;9.23;5.30;;;15.80;99.90;;;;;;4988871;28;20065;-62
2023/07/01 00:10:00;;;;;;;8.82;5.05;;;16.40;99.90;;;;;;4993499;28;20038;-62
2023/07/01 00:12:25;;;;;;;8.23;4.43;;;16.90;99.90;;;;;;4996766;28;20090;-62
2023/07/01 00:14:51;;;;;;;8.95;4.25;;;;;;;;;;4986933;28;20497;-62
2023/07/01 00:17:17;;;;;;;10.40;4.22;;;16.50;99.90;;;;;;4990919;28;20038;-62
2023/07/01 00:19:44;;;;;;;10.55;5.15;;;;;;;;;;4987471;28;20117;-62
2023/07/01 00:22:10;;;;;;;10.90;4.53;;;17.00;99.90;;;;;;4980763;28;20484;-62
2023/07/01 00:24:36;;;;;;;9.07;3.83;;;;;;;;;;4986480;28;20093;-62
2023/07/01 00:27:01;;;;;;;9.15;4.05;;;16.40;99.90;;;;;;4977922;28;20038;-62
2023/07/01 00:29:27;;;;;;;9.57;3.60;;;15.70;99.90;;;;;;4985835;28;20046;-62
2023/07/01 00:31:53;;;;;;;9.20;4.00;;;16.40;99.90;;;;;;4985375;28;20038;-62
2023/07/01 00:34:18;;;;;;;11.23;4.72;;;16.50;99.90;;;;;;4984601;28;20484;-62
2023/07/01 00:36:45;;;;;;;8.43;3.88;;;17.00;99.90;;;;;;4991062;28;20113;-62
2023/07/01 00:39:11;;;;;;;8.30;3.65;;;16.30;99.90;;;;;;4986747;28;20117;-61
2023/07/01 00:41:36;;;;;;;8.35;4.13;;;16.60;99.90;;;;;;4980721;28;20413;-62
2023/07/01 00:44:03;;;;;;;9.30;3.83;;;16.90;99.90;;;;;;4978201;28;20045;-62
2023/07/01 00:46:32;;;;;;;9.88;4.20;;;;;;;;;;4982498;28;20038;-61
2023/07/01 00:49:00;;;;;;;11.07;5.35;;;16.30;99.90;;;;;;4989151;28;20209;-61
2023/07/01 00:51:28;;;;;;;7.43;4.20;;;;;;;;;;4988473;28;20054;-61
2023/07/01 00:53:55;;;;;;;9.80;4.32;;;16.00;1.00;;;;;;4988841;28;20047;-61
2023/07/01 00:56:21;;;;;;;9.35;4.63;;;;;;;;;;4980622;28;20038;-61
2023/07/01 00:58:47;;;;;;;12.85;5.35;;;16.00;1.00;;;;;;4993010;28;20038;-61
2023/07/01 01:01:17;;;;;;;11.45;5.47;;;16.20;1.00;;;;;;4986845;28;20048;-58
2023/07/01 01:03:48;;;;;;;11.50;5.03;;;;;;;;;;4987022;28;20049;-58
2023/07/01 01:06:33;;;;;;;8.80;5.55;;;15.50;24.30;;;;;;4989986;28;20038;-59
2023/07/01 01:09:24;;;;;;;10.68;5.45;;;15.30;56.00;;;;;;4994537;28;20034;-61
2023/07/01 01:11:52;;;;;;;11.23;6.00;;;;;;;;;;4991894;28;20053;-64
2023/07/01 01:14:19;;;;;;;9.82;6.05;;;;;;;;;;4988171;28;20038;-65
2023/07/01 01:16:47;;;;;;;9.55;5.68;;;15.90;99.30;;;;;;4992793;28;20053;-66
2023/07/01 01:19:36;;;;;;;9.60;6.13;;;;;;;;;;4994226;28;20034;-64
2023/07/01 01:22:33;;;;;;;10.60;6.13;;;15.60;99.90;;;;;;4982690;28;20042;-65
2023/07/01 01:25:03;;;;;;;12.55;6.43;;;;;;;;;;4992309;28;20054;-65
2023/07/01 01:27:37;;;;;;;15.68;7.30;;;15.20;99.90;;;;;;4979704;28;20140;-66
2023/07/01 01:30:03;;;;;;;9.52;6.20;;;;;;;;;;4985767;28;20044;-65
2023/07/01 01:32:29;;;;;;;10.82;6.82;;;15.60;99.90;;;;;;4978856;28;20038;-67
2023/07/01 01:34:55;;;;;;;11.75;7.72;;;16.00;99.90;;;;;;4982394;28;20035;-67
2023/07/01 01:37:28;;;;;;;12.43;6.63;;;15.80;99.90;;;;;;4990696;28;20034;-67
2023/07/01 01:40:00;;;;;;;11.65;6.90;;;15.70;99.90;;;;;;4984622;28;20042;-66
2023/07/01 01:42:31;;;;;;;10.88;7.00;;;;;;;;;;4988818;28;20050;-67
2023/07/01 01:44:58;;;;;;;14.68;7.43;;;;;;;;;;4981536;28;20350;-67
2023/07/01 01:47:26;;;;;;;15.02;8.30;;;;;;;;;;4979629;28;20129;-68
2023/07/01 01:49:54;;;;;;;14.77;8.30;;;;;;;;;;4982619;28;20045;-69
2023/07/01 01:52:20;;;;;;;13.75;7.85;;;;;;;;;;4988933;28;20034;-70
2023/07/01 01:54:47;;;;;;;14.43;8.82;;;;;;;;;;4987157;28;20049;-70
2023/07/01 01:57:15;;;;;;;16.55;9.15;;;;;;;;;;4992038;28;20030;-69
2023/07/01 01:59:44;;;;;;;13.65;9.07;;;;;;;;;;4982117;28;20043;-69
2023/07/01 02:02:10;;;;;;;12.35;8.90;;;15.40;99.90;;;;;;5000772;28;20044;-69
2023/07/01 02:04:36;;;;;;;20.63;9.60;;;15.60;99.90;;;;;;4987856;28;20039;-68
2023/07/01 02:07:02;;;;;;;15.98;9.07;;;15.90;99.90;;;;;;4990058;28;20061;-69
2023/07/01 02:09:30;;;;;;;14.80;9.48;;;15.60;99.90;;;;;;4982463;28;20380;-68
2023/07/01 02:11:56;;;;;;;14.45;9.77;;;15.60;99.90;;;;;;4991024;28;20412;-69
2023/07/01 02:14:23;;;;;;;13.65;8.68;;;;;;;;;;4985514;28;20049;-68
2023/07/01 02:16:52;;;;;;;13.38;8.75;;;;;;;;;;4993157;28;20045;-67
2023/07/01 02:19:18;;;;;;;11.50;7.95;;;;;;;;;;5006983;28;20042;-68
2023/07/01 02:21:44;;;;;;;13.38;8.68;;;;;;;;;;4999890;28;20077;-68
2023/07/01 02:24:10;;;;;;;12.93;8.20;;;15.80;99.90;;;;;;4993161;28;20093;-68
2023/07/01 02:26:36;;;;;;;11.40;8.45;;;16.30;99.90;;;;;;4989611;28;20046;-69
2023/07/01 02:29:01;;;;;;;9.38;7.38;;;15.90;99.90;;;;;;4991146;28;20479;-68
2023/07/01 02:31:27;;;;;;;12.80;7.28;;;15.90;99.90;;;;;;4992000;28;20044;-68
2023/07/01 02:33:55;;;;;;;16.77;8.57;;;;;;;;;;4986872;28;20054;-68
2023/07/01 02:36:21;;;;;;;13.98;8.73;;;;;;;;;;4988142;28;20073;-68
2023/07/01 02:38:46;;;;;;;13.93;8.65;;;15.90;99.90;;;;;;4979643;28;20046;-68
2023/07/01 02:41:12;;;;;;;15.00;7.85;;;15.90;99.90;;;;;;4983124;28;20042;-68
2023/07/01 02:43:38;;;;;;;14.20;8.35;;;15.80;99.90;;;;;;4983067;28;20160;-68
2023/07/01 02:46:04;;;;;;;17.10;10.00;;;;;;;;;;4992667;28;20340;-67
2023/07/01 02:48:29;;;;;;;15.18;8.25;;;15.40;99.90;;;;;;4987049;28;20046;-67
2023/07/01 02:50:55;;;;;;;13.98;9.25;;;16.00;99.90;;;;;;4987886;28;20065;-67
2023/07/01 02:53:20;;;;;;;13.55;8.73;;;16.20;99.90;;;;;;4992486;28;20034;-68
2023/07/01 02:55:46;;;;;;;13.10;9.38;;;15.70;99.90;;;;;;4975907;28;20138;-68
2023/07/01 02:58:12;;;;;;;15.13;8.38;;;15.90;99.90;;;;;;4978098;28;20042;-69
2023/07/01 03:00:38;;;;;;;13.35;7.95;;;;;;;;;;4988838;28;20034;-69
2023/07/01 03:03:06;;;;;;;12.05;8.57;;;16.00;99.90;;;;;;4981636;28;20049;-70
2023/07/01 03:05:39;;;;;;;11.77;9.20;;;;;;;;;;4982935;28;20089;-70
2023/07/01 03:08:05;;;;;;;13.15;9.32;;;16.60;99.90;;;;;;4981521;28;20101;-69
2023/07/01 03:10:32;;;;;;;11.98;8.32;;;;;;;;;;4981736;28;20110;-70
2023/07/01 03:12:58;;;;;;;13.30;9.60;;;;;;;;;;4986096;28;20038;-71
2023/07/01 03:15:24;;;;;;;12.55;8.85;;;;;;;;;;4990979;28;20042;-72
2023/07/01 03:17:50;;;;;;;14.70;8.90;;;15.70;99.90;;;;;;4990283;28;20046;-71
2023/07/01 03:20:25;;;;;;;14.57;10.40;;;15.40;99.90;;;;;;4984733;28;20057;-71
2023/07/01 03:22:57;;;;;;;13.88;8.77;;;15.90;99.90;;;;;;4981823;28;20149;-72
2023/07/01 03:25:24;;;;;;;13.05;8.93;;;;;;;;;;4966577;28;20045;-71
2023/07/01 03:27:50;;;;;;;13.52;9.50;;;;;;;;;;4989129;28;20563;-72
2023/07/01 03:30:16;;;;;;;14.90;9.90;;;15.50;99.90;;;;;;4962800;28;20034;-71
2023/07/01 03:32:47;;;;;;;15.98;10.05;;;16.20;99.90;;;;;;4988541;28;20046;-72
2023/07/01 03:35:13;;;;;;;16.63;10.27;;;;;;;;;;4961257;28;20114;-73
2023/07/01 03:37:41;;;;;;;14.25;9.82;;;15.90;99.90;;;;;;4986510;28;20054;-72
2023/07/01 03:40:10;;;;;;;15.90;10.50;;;16.00;99.90;;;;;;4977844;28;20046;-72
2023/07/01 03:42:40;;;;;;;14.57;9.63;;;;;;;;;;4980295;28;20034;-71
2023/07/01 03:45:07;;;;;;;15.13;10.27;;;;;;;;;;4991531;28;20121;-72
2023/07/01 03:47:43;;;;;;;14.48;10.32;;;15.80;99.90;;;;;;4967423;28;20088;-73
2023/07/01 03:50:09;;;;;;;16.65;10.65;;;;;;;;;;4987334;28;20504;-72
2023/07/01 03:52:39;;;;;;;14.63;10.57;;;16.00;99.90;;;;;;4974614;28;20046;-72
2023/07/01 03:55:06;;;;;;;16.13;11.32;;;16.00;99.90;;;;;;4964323;28;20042;-72
2023/07/01 03:57:33;;;;;;;15.20;10.13;;;15.70;99.90;;;;;;4982390;28;20046;-73
2023/07/01 03:59:59;;;;;;;16.33;10.90;;;15.80;99.90;;;;;;4986330;28;20046;-72
2023/07/01 04:02:25;;;;;;;14.23;10.18;;;;;;;;;;4982685;28;20050;-72
2023/07/01 04:04:51;;;;;;;16.52;11.45;;;15.70;99.90;;;;;;4982282;28;20050;-72
2023/07/01 04:07:21;;;;;;;17.67;11.45;;;15.80;99.90;;;;;;4982998;28;20038;-71
2023/07/01 04:09:49;;;;;;;19.25;11.20;;;16.50;99.90;;;;;;4978620;28;20043;-71
2023/07/01 04:12:16;;;;;;;15.73;11.30;;;15.70;99.90;;;;;;4975235;28;20075;-71
2023/07/01 04:14:42;;;;;;;20.35;13.23;;;16.00;99.90;;;;;;4964406;28;20038;-71
2023/07/01 04:17:07;;;;;;;14.75;11.07;;;16.00;99.90;;;;;;4982674;28;20038;-71
2023/07/01 04:19:33;;;;;;;17.85;11.55;;;15.80;99.90;;;;;;4983878;28;20053;-71
2023/07/01 04:21:59;;;;;;;17.52;10.68;;;16.10;99.90;;;;;;4981595;28;20042;-71
2023/07/01 04:24:25;;;;;;;13.88;9.63;;;;;;;;;;4980105;28;20053;-71
2023/07/01 04:26:52;;;;;;;17.85;11.20;;;16.10;99.90;;;;;;4981821;28;20043;-71
2023/07/01 04:29:17;;;;;;;18.27;11.65;;;16.10;99.90;;;;;;4981563;28;20463;-71
2023/07/01 04:31:43;;;;;;;15.70;10.85;;;16.10;99.90;;;;;;4988828;28;20117;-71
2023/07/01 04:34:09;;;;;;;15.02;10.13;;;16.10;99.90;;;;;;4983268;28;20485;-71
2023/07/01 04:36:34;;;;;;;12.45;8.38;;;16.10;99.90;;;;;;4993524;28;20145;-71
2023/07/01 04:39:00;;;;;;;14.52;9.40;;;16.10;99.90;;;;;;4976261;28;20038;-71
2023/07/01 04:41:25;;;;;;;14.93;9.80;;;16.20;99.90;;;;;;4984699;28;20042;-71
2023/07/01 04:43:51;;;;;;;12.48;8.68;;;16.80;99.90;;;;;;4993803;28;20046;-71
2023/07/01 04:46:17;;;;;;;15.18;9.13;;;16.20;99.90;;;;;;4996449;28;20069;-71
2023/07/01 04:48:42;;;;;;;12.98;9.25;;;15.80;99.90;;;;;;5003869;28;20042;-71
2023/07/01 04:51:08;;;;;;;12.45;8.52;;;16.20;99.90;;;;;;5005233;28;20116;-71
2023/07/01 04:53:34;;;;;;;13.55;8.65;;;15.90;99.90;;;;;;4998150;28;20555;-71
2023/07/01 04:56:00;;;;;;;15.38;9.85;;;;;;;;;;4989532;28;20094;-71
2023/07/01 04:58:25;;;;;;;14.15;9.02;;;16.10;99.90;;;;;;4986460;28;20050;-72
2023/07/01 05:00:51;;;;;;;13.73;8.73;;;;;;;;;;4986483;28;20033;-71
2023/07/01 05:03:17;;;;;;;13.07;8.40;;;15.70;99.90;;;;;;4987699;28;20448;-71
2023/07/01 05:05:43;;;;;;;12.43;8.20;;;16.10;99.90;;;;;;4993125;28;20124;-71
2023/07/01 05:08:08;;;;;;;12.02;7.35;;;16.90;99.90;;;;;;4983818;28;20039;-71
2023/07/01 05:10:34;;;;;;;11.52;7.50;;;15.70;99.90;;;;;;4993715;28;20038;-71
2023/07/01 05:12:59;;;;;;;12.80;8.70;;;16.50;99.90;;;;;;5005137;28;20054;-71
2023/07/01 05:15:25;;;;;;;11.38;7.32;;;16.20;99.90;;;;;;4997603;28;20072;-72
2023/07/01 05:17:51;;;;;;;12.07;6.90;;;15.80;99.90;;;;;;4996424;28;20041;-71
2023/07/01 05:20:16;;;;;;;10.45;6.90;;;15.90;99.90;;;;;;4968675;28;20034;-71
2023/07/01 05:22:42;;;;;;;10.35;6.88;;;16.30;99.90;;;;;;4993339;28;20088;-70
2023/07/01 05:25:08;;;;;;;10.73;7.38;;;15.60;99.90;;;;;;4996827;28;20038;-72
2023/07/01 05:27:33;;;;;;;10.63;7.13;;;16.50;99.90;;;;;;4990833;28;20089;-70
2023/07/01 05:29:59;;;;;;;9.73;6.25;;;;;;;;;;4985302;28;20035;-67
2023/07/01 05:32:25;;;;;;;10.75;6.53;;;16.20;99.90;;;;;;4981598;28;20145;-66
2023/07/01 05:34:51;;;;;;;10.90;6.88;;;;;;;;;;4993742;28;20129;-67
2023/07/01 05:37:17;;;;;;;11.05;6.93;;;;;;;;;;4987804;28;20393;-67
2023/07/01 05:39:43;;;;;;;10.73;6.47;;;16.00;99.90;;;;;;4992528;28;20133;-67
2023/07/01 05:42:09;;;;;;;9.82;6.13;;;;;;;;;;4998519;28;20120;-67
2023/07/01 05:44:35;;;;;;;11.52;7.00;;;15.70;99.90;;;;;;4984561;28;20053;-66
2023/07/01 05:47:00;;;;;;;11.55;5.97;;;16.30;99.90;;;;;;4989114;28;20037;-67
2023/07/01 05:49:26;;;;;;;11.90;6.20;;;16.10;99.90;;;;;;5008463;28;20042;-67
2023/07/01 05:51:52;;;;;;;9.43;5.53;;;17.10;99.90;;;;;;5000476;28;20096;-66
2023/07/01 05:54:17;;;;;;;9.60;5.88;;;16.60;99.90;;;;;;4985268;28;20039;-67
2023/07/01 05:56:43;;;;;;;7.18;4.43;;;16.90;99.90;;;;;;4993190;28;20043;-67
2023/07/01 05:59:09;;;;;;;8.63;4.75;;;;;;;;;;4988313;28;20042;-67
2023/07/01 06:01:35;;;;;;;8.27;4.70;;;16.50;99.90;;;;;;4990613;28;20048;-69
2023/07/01 06:04:01;;;;;;;12.05;4.57;;;16.50;99.90;;;;;;4997633;28;20428;-68
2023/07/01 06:06:26;;;;;;;8.80;4.55;;;16.10;99.90;;;;;;4991926;28;20046;-68
2023/07/01 06:08:52;;;;;;;8.82;4.78;;;16.50;99.90;;;;;;4978295;28;20050;-68
2023/07/01 06:11:18;;;;;;;7.40;4.35;;;16.60;99.90;;;;;;4993356;28;20109;-68
2023/07/01 06:13:47;;;;;;;9.45;4.80;;;16.50;99.90;;;;;;4980583;28;20077;-68
2023/07/01 06:16:14;;;;;;;9.40;4.90;;;;;;;;;;4985788;28;20081;-68
2023/07/01 06:18:40;;;;;;;7.63;4.57;;;;;;;;;;4984798;28;20057;-69
2023/07/01 06:21:06;;;;;;;8.10;4.57;;;;;;;;;;4996703;28;20566;-70
2023/07/01 06:23:33;;;;;;;7.90;4.53;;;16.60;99.90;;;;;;4987505;28;20059;-71
2023/07/01 06:25:59;;;;;;;8.15;3.90;;;16.70;99.90;;;;;;4991727;28;20039;-71
2023/07/01 06:28:24;;;;;;;6.90;3.65;;;16.80;99.90;;;;;;4978292;28;20455;-70
2023/07/01 06:30:50;;;;;;;6.38;3.50;;;16.60;99.90;;;;;;4994136;28;20038;-71
2023/07/01 06:33:16;;;;;;;6.38;3.53;;;16.70;99.90;;;;;;4967980;28;20050;-70
2023/07/01 06:35:43;;;;;;;7.30;3.95;;;16.60;99.90;;;;;;4980868;28;20034;-70
2023/07/01 06:38:09;;;;;;;6.57;3.78;;;16.90;99.90;;;;;;4996215;28;20080;-71
2023/07/01 06:40:35;;;;;;;7.07;3.70;;;17.20;99.90;;;;;;4994655;28;20492;-71
2023/07/01 06:43:02;;;;;;;6.32;3.17;;;16.90;99.90;;;;;;4986672;28;20054;-70
2023/07/01 06:45:29;;;;;;;8.02;3.17;;;16.70;99.90;;;;;;4977779;28;20070;-71
2023/07/01 06:47:54;;;;;;;6.55;3.20;;;17.20;99.90;;;;;;4984008;28;20404;-72
2023/07/01 06:50:20;;;;;;;6.60;3.38;;;16.80;99.90;;;;;;4977202;28;20054;-72
2023/07/01 06:52:46;;;;;;;6.15;2.97;;;16.90;99.90;;;;;;4980831;28;20117;-73
2023/07/01 06:55:14;;;;;;;6.50;3.47;;;17.20;99.90;;;;;;4995843;28;20045;-71
2023/07/01 06:57:43;;;;;;;7.18;3.40;;;17.00;99.90;;;;;;4991437;28;20042;-72
2023/07/01 07:00:11;;;;;;;7.32;3.50;;;17.40;99.90;;;;;;4992799;28;20070;-72
2023/07/01 07:02:37;;;;;;;6.20;2.88;;;17.10;99.90;;;;;;4991181;28;20058;-72
2023/07/01 07:05:04;;;;;;;5.93;2.83;;;17.50;99.90;;;;;;4987013;28;20042;-71
2023/07/01 07:07:30;;;;;;;6.00;3.03;;;16.70;99.90;;;;;;4986674;28;20042;-70
2023/07/01 07:09:55;;;;;;;5.95;2.67;;;16.90;99.90;;;;;;4989891;28;20061;-70
2023/07/01 07:12:21;;;;;;;6.82;2.92;;;17.80;99.90;;;;;;4999796;28;20537;-71
2023/07/01 07:14:47;;;;;;;5.90;2.70;;;17.00;99.90;;;;;;4989234;28;20035;-73
2023/07/01 07:17:12;;;;;;;5.70;2.70;;;17.10;99.90;;;;;;4979879;28;20042;-74
2023/07/01 07:19:38;;;;;;;4.80;2.08;;;17.70;99.90;;;;;;4990703;28;20042;-73
2023/07/01 07:22:05;;;;;;;4.93;2.10;;;17.10;99.90;;;;;;4991118;28;20053;-73
2023/07/01 07:24:30;;;;;;;5.78;2.40;;;17.00;99.90;;;;;;4982902;28;20046;-73
2023/07/01 07:26:59;;;;;;;4.82;2.03;;;16.70;99.90;;;;;;4987343;28;20050;-74
2023/07/01 07:29:25;;;;;;;4.80;2.08;;;17.20;99.90;;;;;;4991088;28;20056;-74
2023/07/01 07:31:51;;;;;;;5.07;2.13;;;17.10;99.90;;;;;;4971747;28;20046;-73
2023/07/01 07:34:16;;;;;;;6.40;2.90;;;17.30;99.90;;;;;;4977346;28;20404;-73
2023/07/01 07:36:43;;;;;;;7.75;2.25;;;;;;;;;;4980042;28;20370;-73
2023/07/01 07:39:12;;;;;;;5.75;1.85;;;17.70;99.90;;;;;;4960717;28;20488;-72
2023/07/01 07:41:39;;;;;;;6.88;2.00;;;17.30;99.90;;;;;;4995612;28;20153;-69
2023/07/01 07:44:05;;;;;;;4.55;1.73;;;16.70;99.90;;;;;;4980765;28;20038;-70
2023/07/01 07:46:31;;;;;;;5.47;1.98;;;;;;;;;;4984360;28;20141;-71
2023/07/01 07:48:57;;;;;;;5.88;2.03;;;;;;;;;;4964951;28;20563;-72
2023/07/01 07:51:23;;;;;;;5.30;2.17;;;17.40;99.90;;;;;;4988168;28;20126;-74
2023/07/01 07:53:48;;;;;;;4.93;1.83;;;17.50;99.90;;;;;;4980973;28;20129;-73
2023/07/01 07:56:14;;;;;;;5.40;1.95;;;17.50;99.90;;;;;;4983362;28;20066;-73
2023/07/01 07:58:40;;;;;;;4.70;2.00;;;17.80;99.90;;;;;;4979896;28;20112;-72
2023/07/01 08:01:06;;;;;;;7.05;2.10;;;17.60;99.90;;;;;;4976616;28;20042;-71
2023/07/01 08:03:31;;;;;;;6.18;2.00;;;17.50;99.90;;;;;;4994392;28;20407;-71
2023/07/01 08:05:57;;;;;;;5.03;1.88;;;17.70;99.90;;;;;;4980001;28;20039;-70
2023/07/01 08:08:23;;;;;;;4.93;1.95;;;17.50;99.90;;;;;;4981257;28;20043;-70
2023/07/01 08:10:48;;;;;;;5.82;2.47;;;17.40;99.90;;;;;;4988768;28;20468;-71
2023/07/01 08:13:14;;;;;;;6.50;2.65;;;17.30;99.90;;;;;;4986440;28;20117;-72
2023/07/01 08:15:43;;;;;;;6.72;2.67;;;;;;;;;;4984940;28;20102;-73
2023/07/01 08:18:09;;;;;;;6.40;3.22;;;17.50;99.90;;;;;;4985483;28;20034;-73
2023/07/01 08:20:35;;;;;;;6.65;3.45;;;17.40;99.90;;;;;;4997557;28;20061;-73
2023/07/01 08:23:00;;;;;;;7.88;3.83;;;17.30;99.90;;;;;;4982216;28;20624;-72
2023/07/01 08:25:26;;;;;;;8.82;4.25;;;17.90;99.90;;;;;;4996359;28;20042;-71
2023/07/01 08:27:53;;;;;;;7.63;3.88;;;17.20;99.90;;;;;;4984856;28;20045;-72
2023/07/01 08:30:21;;;;;;;12.48;4.78;;;17.40;99.90;;;;;;4978321;28;20046;-72
2023/07/01 08:32:47;;;;;;;10.40;5.80;;;17.50;99.90;;;;;;4991529;28;20124;-73
2023/07/01 08:35:12;;;;;;;9.65;5.35;;;17.50;99.90;;;;;;4992112;28;20070;-73
2023/07/01 08:37:39;;;;;;;8.98;4.95;;;;;;;;;;4994710;28;20033;-73
2023/07/01 08:40:07;;;;;;;9.57;4.47;;;17.70;99.90;;;;;;4990105;28;20038;-72
2023/07/01 08:42:42;;;;;;;9.05;4.93;;;;;;;;;;4992932;28;20047;-72
2023/07/01 08:45:09;;;;;;;9.98;5.78;;;;;;;;;;4971961;28;20057;-73
2023/07/01 08:47:35;;;;;;;12.77;6.18;;;17.70;99.90;;;;;;4990932;28;20046;-73
2023/07/01 08:50:05;;;;;;;12.20;6.07;;;17.10;99.90;;;;;;4997002;28;20088;-73
2023/07/01 08:52:56;;;;;;;10.90;5.95;;;16.90;99.90;;;;;;4996859;28;20503;-73
2023/07/01 08:55:23;;;;;;;11.75;7.35;;;17.60;99.90;;;;;;4989247;28;20117;-72
2023/07/01 08:57:49;;;;;;;9.82;5.82;;;18.00;99.90;;;;;;4998599;28;20046;-72
2023/07/01 09:00:14;;;;;;;10.73;6.28;;;17.70;99.90;;;;;;4993379;28;20054;-71
2023/07/01 09:02:41;;;;;;;13.40;7.50;;;17.20;99.90;;;;;;5001491;28;20043;-72
2023/07/01 09:05:07;;;;;;;13.50;8.82;;;17.90;99.90;;;;;;4996507;28;20045;-72
2023/07/01 09:07:33;;;;;;;13.25;8.13;;;17.70;99.90;;;;;;4996396;28;20538;-71
2023/07/01 09:10:03;;;;;;;15.15;9.10;;;17.80;99.90;;;;;;4997091;28;20081;-71
2023/07/01 09:12:32;;;;;;;18.83;10.18;;;18.10;99.90;;;;;;4986762;28;20049;-71
2023/07/01 09:15:05;;;;;;;16.00;8.73;;;;;;;;;;4986797;28;20085;-71
2023/07/01 09:17:34;;;;;;;16.52;10.48;;;17.70;99.90;;;;;;4985359;28;20114;-71
2023/07/01 09:20:02;;;;;;;17.63;9.52;;;;;;;;;;4983030;28;20042;-72
2023/07/01 09:22:28;;;;;;;15.45;9.82;;;17.60;99.90;;;;;;4975172;28;20054;-72
2023/07/01 09:24:55;;;;;;;19.08;10.73;;;17.80;99.90;;;;;;4994425;28;20153;-72
2023/07/01 09:27:21;;;;;;;14.88;9.27;;;17.90;99.90;;;;;;5002663;28;20085;-72
2023/07/01 09:29:47;;;;;;;16.55;11.35;;;18.10;99.90;;;;;;4993664;28;20042;-73
2023/07/01 09:32:28;;;;;;;15.15;11.10;;;16.40;99.90;;;;;;4993356;28;20042;-73
2023/07/01 09:34:57;;;;;;;17.63;11.63;;;17.50;99.90;;;;;;4995861;28;20046;-74
2023/07/01 09:37:27;;;;;;;15.68;9.25;;;;;;;;;;4964145;28;20509;-73
2023/07/01 09:39:53;;;;;;;16.60;10.73;;;18.40;99.90;;;;;;4978090;28;20520;-73
2023/07/01 09:42:19;;;;;;;14.65;9.07;;;18.70;99.90;;;;;;4986436;28;20038;-74
2023/07/01 09:45:05;;;;;;;16.67;9.55;;;17.90;99.90;;;;;;4988876;28;20035;-74
2023/07/01 09:47:30;;;;;;;15.30;9.27;;;17.20;99.90;;;;;;4968417;28;20078;-74
2023/07/01 09:49:56;;;;;;;15.93;9.13;;;;;;;;;;4983156;28;20086;-73
2023/07/01 09:52:41;;;;;;;15.27;10.07;;;;;;;;;;4980003;28;20035;-73
2023/07/01 09:55:07;;;;;;;14.00;7.88;;;17.90;99.90;;;;;;5004300;28;20209;-73
2023/07/01 09:57:33;;;;;;;15.88;9.25;;;18.10;99.90;;;;;;4969328;28;20134;-73
2023/07/01 09:59:59;;;;;;;14.82;9.38;;;18.00;99.90;;;;;;4979798;28;20568;-73
2023/07/01 10:02:27;;;;;;;12.90;9.13;;;18.00;99.90;;;;;;4994034;28;20049;-73
2023/07/01 10:04:53;;;;;;;14.80;8.93;;;18.10;99.90;;;;;;4966117;28;20047;-72
2023/07/01 10:07:19;;;;;;;14.82;8.95;;;17.90;99.90;;;;;;4988993;28;20030;-72
2023/07/01 10:09:48;;;;;;;13.02;7.97;;;18.30;99.90;;;;;;4990300;28;20045;-72
2023/07/01 10:12:17;;;;;;;11.73;6.95;;;17.70;99.90;;;;;;4978887;28;20507;-72
2023/07/01 10:14:50;;;;;;;14.43;7.38;;;18.10;99.90;;;;;;4983014;28;20046;-72
2023/07/01 10:17:17;;;;;;;13.30;7.67;;;18.20;99.90;;;;;;4988818;28;20033;-72
2023/07/01 10:19:47;;;;;;;12.82;7.15;;;18.20;99.90;;;;;;4992425;28;20034;-72
2023/07/01 10:22:19;;;;;;;10.68;7.22;;;18.70;99.90;;;;;;4990120;28;20121;-71
2023/07/01 10:24:44;;;;;;;10.50;6.28;;;18.70;99.90;;;;;;4992067;28;20050;-71
2023/07/01 10:27:10;;;;;;;8.45;5.93;;;18.40;99.90;;;;;;4989010;28;20039;-71
2023/07/01 10:29:36;;;;;;;12.18;6.47;;;18.20;99.90;;;;;;4973711;28;20115;-71
2023/07/01 10:32:11;;;;;;;17.35;6.07;;;;;;;;;;4990167;28;20053;-71
2023/07/01 10:34:52;;;;;;;12.98;5.85;;;17.90;99.90;;;;;;4970150;28;20148;-71
2023/07/01 10:37:28;;;;;;;8.07;5.65;;;18.50;99.90;;;;;;4990723;28;20403;-73
2023/07/01 10:39:55;;;;;;;10.25;6.32;;;18.00;99.90;;;;;;4975725;28;20112;-73
2023/07/01 10:42:31;;;;;;;10.02;6.45;;;;;;;;;;4991502;28;20057;-70
2023/07/01 10:45:26;;;;;;;9.13;5.95;;;;;;;;;;4991678;28;20050;-71
2023/07/01 10:47:52;;;;;;;11.93;6.47;;;18.00;99.90;;;;;;4973615;28;20117;-72
2023/07/01 10:50:18;;;;;;;11.48;6.10;;;18.20;99.90;;;;;;4965113;28;20038;-71
2023/07/01 10:52:57;;;;;;;12.23;6.38;;;18.00;99.90;;;;;;4985721;28;20038;-70
2023/07/01 10:55:35;;;;;;;10.18;7.20;;;18.10;99.90;;;;;;4977721;28;20038;-71
2023/07/01 10:58:25;;;;;;;11.35;7.15;;;18.20;99.90;;;;;;4973263;28;20038;-71
2023/07/01 11:00:56;;;;;;;12.15;7.38;;;18.00;99.90;;;;;;4977805;28;20050;-71
2023/07/01 11:03:34;;;;;;;11.35;7.65;;;17.80;99.90;;;;;;4972594;28;20039;-70
2023/07/01 11:06:01;;;;;;;14.52;8.65;;;17.90;99.90;;;;;;4963445;28;20042;-71
2023/07/01 11:08:28;;;;;;;10.98;6.25;;;17.80;99.90;;;;;;4984509;28;20411;-71
2023/07/01 11:10:53;;;;;;;9.43;6.35;;;18.60;99.90;;;;;;4979295;28;20034;-70
2023/07/01 11:13:20;;;;;;;10.48;6.15;;;;;;;;;;4989333;28;20385;-70
2023/07/01 11:16:05;;;;;;;9.15;5.55;;;18.10;99.90;;;;;;4984046;28;20093;-70
2023/07/01 11:18:44;;;;;;;14.02;7.00;;;;;;;;;;4983420;28;20039;-70
2023/07/01 11:21:12;;;;;;;9.13;5.35;;;18.00;59.50;;;;;;4968619;28;20069;-70
2023/07/01 11:23:42;;;;;;;12.70;5.68;;;18.00;70.70;;;;;;4984843;28;20058;-70
2023/07/01 11:26:09;;;;;;;10.02;5.20;;;18.10;23.10;;;;;;4983477;28;20117;-70
2023/07/01 11:28:36;;;;;;;9.75;5.05;;;18.10;23.70;;;;;;4986949;28;20501;-70
2023/07/01 11:31:34;;;;;;;9.25;4.43;;;18.30;1.00;;;;;;4989361;28;20404;-70
2023/07/01 11:34:03;;;;;;;9.38;4.38;;;18.10;1.00;;;;;;4986195;28;20114;-70
2023/07/01 11:36:39;;;;;;;8.48;3.78;;;18.40;1.00;;;;;;4981743;28;20039;-69
2023/07/01 11:39:13;;;;;;;7.53;3.83;;;18.50;1.00;;;;;;4997048;28;20056;-70
2023/07/01 11:41:42;;;;;;;8.00;4.15;;;18.70;1.00;;;;;;4989403;28;20084;-69
2023/07/01 11:44:09;;;;;;;7.63;4.20;;;18.80;99.90;;;;;;4989128;28;20042;-69
2023/07/01 11:46:38;;;;;;;8.88;4.13;;;19.10;1.00;;;;;;4986076;28;20042;-69
2023/07/01 11:49:11;;;;;;;8.35;4.70;;;18.50;1.00;;;;;;4977328;28;20043;-69
2023/07/01 11:51:38;;;;;;;8.82;4.30;;;18.90;1.00;;;;;;4994837;28;20042;-69
2023/07/01 11:54:03;;;;;;;7.68;3.40;;;19.50;99.90;;;;;;4990927;28;20042;-69
2023/07/01 11:56:29;;;;;;;7.32;3.22;;;19.40;99.90;;;;;;4995894;28;20412;-69
2023/07/01 11:58:55;;;;;;;5.72;3.00;;;18.40;99.90;;;;;;4990892;28;20043;-69
2023/07/01 12:01:25;;;;;;;7.20;3.10;;;18.90;99.90;;;;;;4983609;28;20066;-69
2023/07/01 12:03:54;;;;;;;5.63;2.90;;;19.60;99.90;;;;;;4999214;28;20381;-69
2023/07/01 12:06:24;;;;;;;5.78;2.50;;;20.10;99.90;;;;;;4996668;28;20041;-69
2023/07/01 12:08:57;;;;;;;6.68;2.75;;;19.80;99.90;;;;;;4995219;28;20088;-68
2023/07/01 12:11:24;;;;;;;4.97;2.55;;;19.60;99.90;;;;;;4988777;28;20042;-69
2023/07/01 12:13:51;;;;;;;8.43;3.25;;;20.20;99.90;;;;;;4991609;28;20038;-68
2023/07/01 12:16:18;;;;;;;5.28;2.97;;;20.10;99.90;;;;;;4991747;28;20045;-68
2023/07/01 12:18:44;;;;;;;5.68;3.05;;;19.80;99.90;;;;;;4991116;28;20097;-68
2023/07/01 12:21:10;;;;;;;6.72;2.75;;;20.20;99.90;;;;;;4991312;28;20040;-67
2023/07/01 12:23:43;;;;;;;5.28;2.50;;;19.90;99.90;;;;;;4983905;28;20046;-68
2023/07/01 12:26:13;;;;;;;6.28;2.90;;;20.10;99.90;;;;;;4990140;28;20492;-68
2023/07/01 12:28:41;;;;;;;5.57;2.03;;;19.90;99.90;;;;;;4994532;28;20053;-68
2023/07/01 12:31:07;;;;;;;6.85;2.28;;;20.10;99.90;;;;;;4990357;28;20045;-68
2023/07/01 12:33:34;;;;;;;6.32;2.50;;;19.90;99.90;;;;;;4989185;28;20042;-68
2023/07/01 12:36:00;;;;;;;4.93;1.90;;;19.90;99.90;;;;;;4987763;28;20038;-68
2023/07/01 12:38:27;;;;;;;6.15;2.15;;;19.90;99.90;;;;;;4986214;28;20057;-67
2023/07/01 12:40:54;;;;;;;6.15;2.38;;;19.90;62.60;;;;;;4996920;28;20093;-67
2023/07/01 12:43:22;;;;;;;5.65;2.60;;;19.60;99.90;;;;;;4998198;28;20034;-67
2023/07/01 12:45:49;;;;;;;7.47;2.30;;;19.20;99.90;;;;;;4987437;28;20129;-67
2023/07/01 12:48:15;;;;;;;6.38;2.60;;;18.90;99.90;;;;;;4986915;28;20042;-67
2023/07/01 12:50:41;;;;;;;6.10;2.65;;;19.90;99.90;;;;;;4994888;28;20041;-67
2023/07/01 12:53:07;;;;;;;8.90;2.67;;;19.90;1.00;;;;;;4992000;28;20052;-67
2023/07/01 12:55:32;;;;;;;6.00;2.50;;;19.40;41.60;;;;;;4992309;28;20044;-67
2023/07/01 12:57:59;;;;;;;5.95;2.50;;;19.80;1.00;;;;;;4993525;28;20069;-67
2023/07/01 13:00:25;;;;;;;5.63;2.40;;;19.70;1.00;;;;;;5000861;28;20419;-67
2023/07/01 13:02:50;;;;;;;8.50;2.63;;;19.10;1.00;;;;;;4995408;28;20046;-67
2023/07/01 13:05:19;;;;;;;5.75;2.50;;;19.10;1.00;;;;;;4998327;28;20037;-67